Terminal Aerodrome Forecast
Issued by NWS

Current Version | Previous Version | Text Only | Print | Product List | Glossary Off
Versions: 1 2 3 4 5 6 7 8 9 10 11 12 13 14 15 16 17

000
FTUS41 KPBZ 172300
TAFHLG
TAF
KHLG 172339Z 1800/1824 VRB03KT P6SM SKC
     FM181000 00000KT 4SM BR SKC
     FM181400 34005KT P6SM SKC=

USA.gov is the U.S. government's official web portal to all federal, state and local government web resources and services.